Time;durP1;ratioP1;P1;durP2;ratioP2;P2;SDS_P1;SDS_P2;PMS_P1;PMS_P2;Temp;Humidity;BMP_temperature;BMP_pressure;BME280_temperature;BME280_humidity;BME280_pressure;Samples;Min_cycle;Max_cycle;Signal;HPM_P1;HPM_P2
2020/12/15 00:01:22;;;;;;;129.15;59.23;;;;;;;0.35;80.50;100318.58;126460;1097;23389;-59
2020/12/15 00:03:52;;;;;;;131.17;58.43;;;;;;;0.37;81.35;100318.98;126373;1097;23354;-58
2020/12/15 00:06:21;;;;;;;125.83;57.73;;;;;;;0.39;80.72;100313.86;126310;1097;23315;-59
2020/12/15 00:08:50;;;;;;;126.43;55.07;;;;;;;0.38;81.29;100319.73;126249;1097;23376;-58
2020/12/15 00:11:20;;;;;;;140.07;59.87;;;;;;;0.36;81.43;100314.66;126388;1097;23415;-58
2020/12/15 00:13:49;;;;;;;123.25;55.63;;;;;;;0.35;81.06;100317.82;126413;1097;23388;-60
2020/12/15 00:16:21;;;;;;;132.77;57.17;;;;;;;0.30;80.59;100318.25;126398;1097;23342;-60
2020/12/15 00:18:51;;;;;;;121.17;55.67;;;;;;;0.28;81.53;100312.39;126252;1097;23379;-60
2020/12/15 00:21:21;;;;;;;130.97;54.87;;;;;;;0.26;80.93;100323.00;126286;1097;27124;-58
2020/12/15 00:23:51;;;;;;;129.70;58.40;;;;;;;0.24;81.28;100323.42;126641;1090;26302;-58
2020/12/15 00:26:21;;;;;;;131.47;57.05;;;;;;;0.22;81.04;100325.01;126648;1097;26305;-56
2020/12/15 00:28:51;;;;;;;123.43;52.90;;;;;;;0.21;81.30;100331.70;126691;1098;24555;-59
2020/12/15 00:31:22;;;;;;;122.00;54.27;;;;;;;0.22;81.47;100325.01;126690;1097;23566;-60
2020/12/15 00:33:51;;;;;;;128.65;54.70;;;;;;;0.25;81.15;100324.20;126319;1097;27576;-57
2020/12/15 00:36:21;;;;;;;132.10;54.87;;;;;;;0.25;81.50;100327.70;126405;1097;23373;-60
2020/12/15 00:38:50;;;;;;;114.62;51.37;;;;;;;0.25;81.05;100327.70;126466;1097;23330;-60
2020/12/15 00:41:21;;;;;;;130.80;55.55;;;;;;;0.25;81.77;100324.96;126336;1097;23323;-57
2020/12/15 00:43:50;;;;;;;118.23;51.53;;;;;;;0.24;81.42;100323.42;126439;1097;26820;-58
2020/12/15 00:46:20;;;;;;;113.03;52.53;;;;;;;0.22;81.50;100320.30;126273;1097;26814;-60
2020/12/15 00:48:49;;;;;;;110.15;50.10;;;;;;;0.22;81.60;100317.55;126744;1097;26964;-61
2020/12/15 00:51:19;;;;;;;117.33;49.93;;;;;;;0.21;81.81;100309.73;126404;1097;26785;-55
2020/12/15 00:53:49;;;;;;;110.80;49.70;;;;;;;0.21;82.01;100310.49;126773;1097;23346;-62
2020/12/15 00:56:19;;;;;;;109.30;47.60;;;;;;;0.22;81.82;100319.52;126461;1098;26819;-58
2020/12/15 00:58:48;;;;;;;118.77;49.48;;;;;;;0.22;82.13;100320.30;126817;1097;23365;-62
2020/12/15 01:01:18;;;;;;;103.07;47.53;;;;;;;0.24;81.58;100325.37;126305;1097;23385;-58
2020/12/15 01:03:47;;;;;;;105.83;48.03;;;;;;;0.26;82.16;100332.03;126412;1097;23441;-58
2020/12/15 01:06:16;;;;;;;113.77;48.77;;;;;;;0.28;82.45;100339.85;126474;1097;23702;-60
2020/12/15 01:08:45;;;;;;;118.23;49.53;;;;;;;0.28;82.17;100332.40;126337;1097;23338;-60
2020/12/15 01:11:14;;;;;;;111.90;45.97;;;;;;;0.28;82.14;100323.38;126402;1097;23422;-58
2020/12/15 01:13:44;;;;;;;104.40;47.45;;;;;;;0.29;81.77;100330.44;126343;1097;26801;-59
2020/12/15 01:16:14;;;;;;;99.17;47.40;;;;;;;0.31;82.39;100328.06;126435;1097;23319;-57
2020/12/15 01:18:45;;;;;;;107.23;46.20;;;;;;;0.33;82.52;100320.95;126264;1097;23315;-58
2020/12/15 01:21:15;;;;;;;104.10;46.67;;;;;;;0.34;82.19;100327.23;126583;1097;25017;-58
2020/12/15 01:23:54;;;;;;;110.90;47.97;;;;;;;0.36;82.02;100324.86;126328;1097;27968;-59
2020/12/15 01:26:23;;;;;;;110.70;46.23;;;;;;;0.35;82.06;100328.81;126558;1097;29014;-58
2020/12/15 01:28:54;;;;;;;107.80;45.03;;;;;;;0.34;81.87;100319.78;126510;1097;23397;-60
2020/12/15 01:31:27;;;;;;;104.20;45.47;;;;;;;0.36;82.17;100325.65;126548;1098;23379;-59
2020/12/15 01:33:56;;;;;;;103.90;44.83;;;;;;;0.37;82.28;100329.97;126373;1097;23379;-59
2020/12/15 01:36:30;;;;;;;100.15;46.02;;;;;;;0.36;81.79;100322.90;126300;1098;25074;-59
2020/12/15 01:39:00;;;;;;;109.03;46.33;;;;;;;0.37;82.57;100321.73;126581;1097;27575;-60
2020/12/15 01:41:29;;;;;;;106.83;44.40;;;;;;;0.38;82.58;100320.52;126438;1097;25022;-58
2020/12/15 01:44:01;;;;;;;124.13;48.57;;;;;;;0.40;82.24;100318.15;126441;1097;27733;-58
2020/12/15 01:46:32;;;;;;;102.00;46.40;;;;;;;0.41;81.76;100316.19;126116;1097;23769;-58
2020/12/15 01:49:01;;;;;;;106.67;49.60;;;;;;;0.43;82.11;100311.06;127165;1098;28009;-59
2020/12/15 01:51:31;;;;;;;109.20;48.93;;;;;;;0.45;81.96;100308.69;126335;1097;26259;-58
2020/12/15 01:54:01;;;;;;;107.80;47.90;;;;;;;0.43;82.19;100305.58;126445;1098;23324;-58
2020/12/15 01:56:30;;;;;;;107.33;45.67;;;;;;;0.40;81.63;100298.92;126430;1097;27762;-59
2020/12/15 01:59:03;;;;;;;107.03;45.10;;;;;;;0.39;81.68;100297.38;126394;1097;29031;-56
2020/12/15 02:01:44;;;;;;;111.73;45.77;;;;;;;0.41;82.51;100296.97;126359;1097;23357;-60
2020/12/15 02:04:14;;;;;;;97.67;45.80;;;;;;;0.40;81.74;100296.17;126469;1090;23385;-58
2020/12/15 02:06:47;;;;;;;100.93;48.13;;;;;;;0.40;82.20;100298.14;126345;1097;23318;-59
2020/12/15 02:09:18;;;;;;;106.63;47.90;;;;;;;0.39;81.87;100300.12;126452;1098;25108;-59
2020/12/15 02:11:50;;;;;;;111.90;47.50;;;;;;;0.39;82.48;100297.38;126518;1097;23384;-58
2020/12/15 02:14:21;;;;;;;113.73;48.03;;;;;;;0.40;81.74;100301.67;126485;1098;25973;-61
2020/12/15 02:16:53;;;;;;;107.83;45.98;;;;;;;0.41;81.83;100297.75;126551;1097;26845;-62
2020/12/15 02:19:22;;;;;;;104.70;45.53;;;;;;;0.43;82.47;100298.13;126335;1097;23462;-58
2020/12/15 02:21:53;;;;;;;105.77;44.50;;;;;;;0.42;81.87;100291.05;126486;1097;23379;-60
2020/12/15 02:24:23;;;;;;;103.77;43.10;;;;;;;0.40;82.20;100295.39;126701;1098;26420;-58
2020/12/15 02:26:54;;;;;;;98.15;42.70;;;;;;;0.39;82.25;100289.14;126354;1098;26816;-60
2020/12/15 02:29:23;;;;;;;96.50;43.03;;;;;;;0.41;82.56;100296.97;126522;1098;23440;-61
2020/12/15 02:31:53;;;;;;;99.97;42.08;;;;;;;0.40;81.70;100303.63;126806;1098;25017;-59
2020/12/15 02:34:22;;;;;;;91.63;40.93;;;;;;;0.39;81.92;100297.38;126366;1097;25096;-61
2020/12/15 02:36:52;;;;;;;99.67;42.87;;;;;;;0.39;81.73;100294.64;126530;1097;27750;-58
2020/12/15 02:39:21;;;;;;;98.75;44.27;;;;;;;0.39;82.50;100302.09;126326;1097;23335;-56
2020/12/15 02:41:54;;;;;;;94.63;40.10;;;;;;;0.38;82.51;100304.05;126336;1097;23318;-60
2020/12/15 02:44:23;;;;;;;102.10;42.17;;;;;;;0.39;82.42;100294.64;126496;1097;23366;-60
2020/12/15 02:46:53;;;;;;;89.33;41.20;;;;;;;0.40;81.59;100281.66;126112;1097;23372;-62
2020/12/15 02:49:22;;;;;;;91.80;41.73;;;;;;;0.42;81.95;100279.28;126419;1097;23309;-58
2020/12/15 02:51:51;;;;;;;92.67;39.87;;;;;;;0.42;82.38;100285.56;126474;1097;23429;-60
2020/12/15 02:54:20;;;;;;;95.15;40.35;;;;;;;0.41;81.96;100286.77;126479;1095;26335;-61
2020/12/15 02:56:50;;;;;;;101.27;41.97;;;;;;;0.40;81.68;100281.66;126428;1097;23433;-57
2020/12/15 02:59:19;;;;;;;100.20;43.33;;;;;;;0.36;81.63;100287.20;126453;1097;23404;-59
2020/12/15 03:01:51;;;;;;;93.05;42.25;;;;;;;0.32;81.67;100286.46;126295;1097;23373;-63
2020/12/15 03:04:21;;;;;;;103.17;51.40;;;;;;;0.31;81.79;100281.39;126859;1097;24997;-61
2020/12/15 03:06:50;;;;;;;113.77;57.20;;;;;;;0.29;82.10;100290.01;126315;1097;28947;-59
2020/12/15 03:09:19;;;;;;;104.80;52.77;;;;;;;0.29;82.55;100283.77;126281;1095;23408;-60
2020/12/15 03:11:49;;;;;;;98.33;45.27;;;;;;;0.28;82.27;100271.99;126271;1097;23367;-62
2020/12/15 03:14:17;;;;;;;101.57;46.57;;;;;;;0.29;82.50;100275.52;126436;1097;26814;-60
2020/12/15 03:16:47;;;;;;;104.17;43.00;;;;;;;0.28;82.10;100274.73;126278;1098;23541;-61
2020/12/15 03:19:16;;;;;;;89.07;42.63;;;;;;;0.30;81.75;100282.56;126305;1097;23909;-60
2020/12/15 03:21:45;;;;;;;100.17;44.40;;;;;;;0.30;82.47;100271.58;126436;1097;26807;-59
2020/12/15 03:24:14;;;;;;;99.63;44.50;;;;;;;0.29;82.52;100284.52;126246;1097;23333;-58
2020/12/15 03:26:43;;;;;;;101.37;44.20;;;;;;;0.27;82.55;100292.39;126310;1097;23449;-60
2020/12/15 03:29:13;;;;;;;99.80;45.40;;;;;;;0.26;81.85;100298.30;126295;1097;24836;-60
2020/12/15 03:31:42;;;;;;;96.47;44.13;;;;;;;0.26;82.30;100290.84;128580;1097;26085;-57
2020/12/15 03:34:11;;;;;;;99.30;47.53;;;;;;;0.26;81.88;100292.80;126436;1097;23297;-59
2020/12/15 03:36:41;;;;;;;107.33;49.33;;;;;;;0.26;81.91;100296.34;126878;1097;23442;-58
2020/12/15 03:39:10;;;;;;;120.63;56.80;;;;;;;0.26;82.03;100288.09;126515;1097;23315;-60
2020/12/15 03:41:39;;;;;;;129.90;59.95;;;;;;;0.24;82.69;100287.73;126414;1097;23366;-60
2020/12/15 03:44:09;;;;;;;122.67;55.47;;;;;;;0.24;82.03;100281.45;126314;1097;24845;-58
2020/12/15 03:46:38;;;;;;;113.45;51.98;;;;;;;0.25;82.73;100280.28;126600;1097;23312;-63
2020/12/15 03:49:07;;;;;;;122.70;55.60;;;;;;;0.24;82.80;100279.49;126535;1097;23383;-59
2020/12/15 03:51:37;;;;;;;104.87;51.53;;;;;;;0.24;82.26;100278.70;126380;1097;25146;-58
2020/12/15 03:54:07;;;;;;;98.22;44.55;;;;;;;0.25;82.83;100283.78;126795;1097;23319;-61
2020/12/15 03:56:36;;;;;;;106.53;48.07;;;;;;;0.24;82.23;100279.49;126391;1097;25481;-59
2020/12/15 03:59:05;;;;;;;107.17;44.07;;;;;;;0.22;81.96;100287.36;126318;1097;23369;-58
2020/12/15 04:01:35;;;;;;;95.55;44.65;;;;;;;0.21;82.47;100280.30;126329;1096;23385;-59
2020/12/15 04:04:04;;;;;;;95.90;41.70;;;;;;;0.20;81.99;100284.23;126364;1097;23554;-57
2020/12/15 04:06:34;;;;;;;98.15;41.80;;;;;;;0.18;82.25;100270.14;126337;1095;25019;-60
2020/12/15 04:09:04;;;;;;;92.67;40.92;;;;;;;0.18;82.88;100277.59;126557;1097;23299;-60
2020/12/15 04:11:33;;;;;;;92.77;38.00;;;;;;;0.18;82.64;100280.34;127381;1097;27967;-59
2020/12/15 04:14:02;;;;;;;84.60;36.77;;;;;;;0.17;82.55;100289.75;126317;1098;25093;-59
2020/12/15 04:16:31;;;;;;;82.63;35.90;;;;;;;0.19;81.99;100290.14;126807;1097;23332;-59
2020/12/15 04:19:00;;;;;;;84.57;38.37;;;;;;;0.23;82.45;100286.16;126355;1098;25060;-58
2020/12/15 04:21:30;;;;;;;82.97;34.80;;;;;;;0.26;82.06;100282.61;126224;1097;26514;-59
2020/12/15 04:23:59;;;;;;;96.23;39.17;;;;;;;0.27;82.39;100270.42;126386;1097;23310;-60
2020/12/15 04:26:28;;;;;;;90.07;38.23;;;;;;;0.25;82.73;100269.30;126316;1097;25975;-60
2020/12/15 04:28:57;;;;;;;77.55;34.35;;;;;;;0.22;82.38;100275.59;126224;1095;27761;-60
2020/12/15 04:31:31;;;;;;;80.20;32.90;;;;;;;0.17;82.68;100262.30;126204;1098;23426;-58
2020/12/15 04:34:00;;;;;;;82.33;32.93;;;;;;;0.12;82.20;100269.03;126475;1095;26987;-59
2020/12/15 04:36:29;;;;;;;72.75;30.80;;;;;;;0.13;82.08;100272.53;126224;1098;23311;-59
2020/12/15 04:38:58;;;;;;;75.97;31.80;;;;;;;0.14;82.59;100263.91;126304;1097;29347;-60
2020/12/15 04:41:27;;;;;;;79.20;32.43;;;;;;;0.14;82.76;100265.88;126391;1097;26279;-59
2020/12/15 04:43:59;;;;;;;78.73;34.73;;;;;;;0.18;82.74;100258.38;126457;1097;23364;-59
2020/12/15 04:46:31;;;;;;;73.87;31.90;;;;;;;0.19;82.18;100265.44;126302;1097;23471;-61
2020/12/15 04:49:05;;;;;;;78.60;33.73;;;;;;;0.20;82.61;100256.79;126730;1097;27993;-59
2020/12/15 04:51:58;;;;;;;69.85;32.30;;;;;;;0.20;82.25;100254.05;126089;1097;23444;-59
2020/12/15 04:54:32;;;;;;;70.67;29.83;;;;;;;0.18;82.46;100261.91;126086;1097;26696;-60
2020/12/15 04:57:03;;;;;;;63.00;27.57;;;;;;;0.17;82.06;100263.08;126234;1097;28837;-60
2020/12/15 04:59:33;;;;;;;60.23;24.90;;;;;;;0.15;83.05;100256.44;126086;1097;23775;-60
2020/12/15 05:02:03;;;;;;;59.53;26.05;;;;;;;0.13;82.89;100262.34;126132;1097;23320;-58
2020/12/15 05:04:39;;;;;;;67.53;27.62;;;;;;;0.15;83.09;100261.92;126067;1098;25198;-58
2020/12/15 05:07:10;;;;;;;68.97;28.60;;;;;;;0.13;82.33;100264.30;126117;1090;23343;-57
2020/12/15 05:09:39;;;;;;;65.80;28.00;;;;;;;0.13;82.37;100253.31;126109;1097;23373;-59
2020/12/15 05:12:08;;;;;;;65.37;26.57;;;;;;;0.16;83.16;100252.52;126099;1097;26012;-57
2020/12/15 05:14:37;;;;;;;60.70;26.23;;;;;;;0.17;83.20;100257.59;125982;1097;25042;-58
2020/12/15 05:17:06;;;;;;;64.57;26.30;;;;;;;0.16;83.25;100250.55;126064;1097;23308;-58
2020/12/15 05:19:45;;;;;;;82.70;35.70;;;;;;;0.16;83.40;100256.05;126018;1096;23381;-56
2020/12/15 05:22:15;;;;;;;91.40;49.97;;;;;;;0.15;82.83;100254.47;126339;1095;23404;-59
2020/12/15 05:24:48;;;;;;;89.90;52.90;;;;;;;0.14;83.33;100254.89;126034;1097;23385;-62
2020/12/15 05:27:29;;;;;;;69.87;35.63;;;;;;;0.15;83.12;100256.44;126095;1097;23318;-61
2020/12/15 05:30:12;;;;;;;79.70;41.30;;;;;;;0.16;83.02;100255.27;126380;1097;24936;-58
2020/12/15 05:32:50;;;;;;;91.50;55.90;;;;;;;0.16;83.31;100256.05;126727;1097;23434;-57
2020/12/15 05:35:26;;;;;;;176.43;73.37;;;;;;;0.14;82.81;100260.38;126423;1096;23369;-57
2020/12/15 05:37:56;;;;;;;183.93;69.27;;;;;;;0.14;82.97;100258.42;126493;1097;23385;-58
2020/12/15 05:40:26;;;;;;;182.78;67.47;;;;;;;0.16;83.23;100249.77;126393;1097;23366;-58
2020/12/15 05:42:57;;;;;;;211.80;76.17;;;;;;;0.18;83.59;100256.42;126127;1097;23315;-63
2020/12/15 05:45:27;;;;;;;140.13;51.33;;;;;;;0.18;83.61;100252.89;125925;1098;23858;-59
2020/12/15 05:48:04;;;;;;;131.95;51.25;;;;;;;0.17;83.00;100246.61;127093;1098;23554;-59
2020/12/15 05:50:33;;;;;;;120.70;42.70;;;;;;;0.19;82.85;100243.48;125977;1098;23300;-58
2020/12/15 05:53:05;;;;;;;115.10;44.75;;;;;;;0.19;83.44;100246.22;127037;1098;25075;-58
2020/12/15 05:55:35;;;;;;;113.43;43.83;;;;;;;0.18;83.07;100239.16;126921;1098;23467;-58
2020/12/15 05:58:07;;;;;;;98.00;41.37;;;;;;;0.20;82.88;100248.55;126018;1098;24282;-56
2020/12/15 06:00:36;;;;;;;87.45;40.05;;;;;;;0.21;83.57;100247.34;126362;1098;26999;-57
2020/12/15 06:03:06;;;;;;;78.30;35.03;;;;;;;0.21;82.83;100250.09;126273;1093;26428;-59
2020/12/15 06:05:36;;;;;;;80.80;33.42;;;;;;;0.21;83.55;100247.34;125953;1090;23660;-59
2020/12/15 06:08:07;;;;;;;72.70;31.73;;;;;;;0.23;83.34;100246.96;125919;1097;23318;-65
2020/12/15 06:10:37;;;;;;;58.93;25.70;;;;;;;0.20;83.04;100251.30;126088;1090;26874;-67
2020/12/15 06:13:06;;;;;;;49.93;22.50;;;;;;;0.21;83.12;100247.34;125979;1097;23367;-58
2020/12/15 06:15:35;;;;;;;46.03;20.57;;;;;;;0.18;83.35;100255.63;125851;1097;27124;-58
2020/12/15 06:18:05;;;;;;;49.17;21.27;;;;;;;0.17;83.22;100262.30;125959;1097;23366;-58
2020/12/15 06:20:36;;;;;;;47.88;21.65;;;;;;;0.17;82.92;100259.55;126646;1097;27213;-58
2020/12/15 06:23:10;;;;;;;57.87;25.03;;;;;;;0.18;82.58;100264.66;125546;1090;23436;-57
2020/12/15 06:25:39;;;;;;;52.53;25.73;;;;;;;0.21;82.53;100263.06;126145;1097;28084;-55
2020/12/15 06:28:10;;;;;;;58.05;29.48;;;;;;;0.22;83.27;100259.91;125900;1097;23427;-60
2020/12/15 06:30:39;;;;;;;;;;;;;;;0.20;82.74;100256.79;126432;1097;26863;-56
2020/12/15 06:33:11;;;;;;;55.00;25.70;;;;;;;0.17;82.30;100262.30;126015;1096;21576;-58
2020/12/15 06:35:44;;;;;;;48.93;22.43;;;;;;;0.17;83.15;100268.57;127872;1097;23315;-57
2020/12/15 06:38:20;;;;;;;52.60;23.80;;;;;;;0.19;82.63;100268.94;125977;1098;23320;-58
2020/12/15 06:40:51;;;;;;;46.77;20.93;;;;;;;0.19;82.91;100270.93;126027;1097;23533;-57
2020/12/15 06:43:27;;;;;;;45.90;19.90;;;;;;;0.17;82.51;100271.31;126056;1097;23420;-59
2020/12/15 06:46:08;;;;;;;46.37;21.07;;;;;;;0.18;83.04;100267.40;125887;1096;23302;-57
2020/12/15 06:48:40;;;;;;;44.25;19.07;;;;;;;0.14;82.90;100265.88;126090;1097;23481;-58
2020/12/15 06:52:10;;;;;;;;;;;;;;;;;;;;;
2020/12/15 06:55:59;;;;;;;49.38;27.05;;;;;;;0.16;82.22;100263.50;126893;1100;32024;-62
2020/12/15 06:58:28;;;;;;;63.65;32.25;;;;;;;0.16;82.77;100268.98;126910;1102;25018;-58
2020/12/15 07:00:58;;;;;;;60.63;24.15;;;;;;;0.16;82.96;100260.75;125556;1102;23376;-56
2020/12/15 07:03:37;;;;;;;47.43;18.82;;;;;;;0.12;82.23;100269.03;128972;1101;23306;-58
2020/12/15 07:06:12;;;;;;;50.10;18.30;;;;;;;0.11;82.46;100258.44;127193;1101;23330;-57
2020/12/15 07:08:42;;;;;;;40.33;17.80;;;;;;;0.07;83.21;100265.94;126559;1101;23315;-57
2020/12/15 07:11:12;;;;;;;42.03;17.55;;;;;;;0.06;83.19;100264.39;125559;1101;23469;-57
2020/12/15 07:13:41;;;;;;;36.47;14.20;;;;;;;0.04;83.62;100275.78;125616;1101;23428;-58
2020/12/15 07:16:20;;;;;;;34.73;13.10;;;;;;;0.02;83.55;100269.13;125470;1101;23315;-58
2020/12/15 07:18:53;;;;;;;40.13;14.20;;;;;;;0.03;82.81;100271.47;126205;1101;25504;-59
2020/12/15 07:21:23;;;;;;;36.03;14.93;;;;;;;0.03;83.47;100268.72;125683;1101;23520;-57
2020/12/15 07:24:00;;;;;;;38.48;14.50;;;;;;;0.04;83.60;100262.06;125524;1101;23393;-59
2020/12/15 07:26:31;;;;;;;39.30;15.63;;;;;;;0.07;83.73;100271.42;125886;1101;23520;-56
2020/12/15 07:29:01;;;;;;;40.60;15.57;;;;;;;0.10;83.77;100268.66;128108;1101;25084;-58
2020/12/15 07:31:32;;;;;;;39.60;14.35;;;;;;;0.10;83.17;100265.92;125503;1101;23436;-57
2020/12/15 07:34:16;;;;;;;39.30;15.60;;;;;;;0.12;83.48;100266.28;125394;1093;28625;-58
2020/12/15 07:36:50;;;;;;;39.43;14.83;;;;;;;0.16;83.68;100277.22;126249;1101;23315;-58
2020/12/15 07:39:22;;;;;;;36.67;14.40;;;;;;;0.18;84.14;100272.89;126588;1101;23520;-59
2020/12/15 07:42:01;;;;;;;40.87;16.97;;;;;;;0.21;83.40;100276.79;125586;1100;23532;-58
2020/12/15 07:44:31;;;;;;;39.00;15.45;;;;;;;0.23;84.27;100277.16;126107;1098;24840;-59
2020/12/15 07:47:04;;;;;;;39.90;16.45;;;;;;;0.26;83.83;100268.88;125964;1098;23514;-58
2020/12/15 07:49:35;;;;;;;42.50;16.77;;;;;;;0.28;83.99;100265.72;125949;1098;26904;-58
2020/12/15 07:52:03;;;;;;;;;;;;;;;0.31;83.47;100264.91;126001;1098;23388;-58
2020/12/15 07:54:33;;;;;;;44.03;19.67;;;;;;;0.33;83.74;100266.03;126252;1098;24577;-60
2020/12/15 07:57:02;;;;;;;46.40;19.03;;;;;;;0.36;84.15;100273.47;125987;1098;23383;-59
2020/12/15 07:59:34;;;;;;;50.83;21.60;;;;;;;0.40;84.18;100279.70;125943;1093;24688;-59
2020/12/15 08:02:04;;;;;;;48.73;21.30;;;;;;;0.46;84.34;100286.30;126330;1098;25091;-58
2020/12/15 08:04:34;;;;;;;50.30;21.40;;;;;;;0.54;83.99;100284.23;127163;1098;25586;-57
2020/12/15 08:07:04;;;;;;;56.20;22.52;;;;;;;0.60;84.64;100291.63;126043;1098;26418;-57
2020/12/15 08:09:34;;;;;;;47.60;20.40;;;;;;;0.65;84.74;100293.93;126350;1098;23434;-59
2020/12/15 08:12:06;;;;;;;54.13;19.57;;;;;;;0.70;84.42;100287.97;125822;1099;23530;-59
2020/12/15 08:14:38;;;;;;;44.27;17.90;;;;;;;0.75;84.21;100293.02;125930;1098;23315;-56
2020/12/15 08:17:13;;;;;;;51.07;20.43;;;;;;;0.83;84.20;100294.48;126002;1098;23570;-57
2020/12/15 08:19:43;;;;;;;43.67;17.30;;;;;;;0.90;84.67;100292.84;125833;1098;27913;-58
2020/12/15 08:22:19;;;;;;;40.17;17.87;;;;;;;0.98;84.10;100289.59;126360;1098;27966;-58
2020/12/15 08:24:51;;;;;;;44.50;18.50;;;;;;;1.05;84.50;100288.72;125984;1099;25499;-57
2020/12/15 08:27:24;;;;;;;47.47;18.40;;;;;;;1.10;84.86;100290.98;126236;1098;23357;-59
2020/12/15 08:29:55;;;;;;;54.40;20.43;;;;;;;1.16;84.64;100300.36;126303;1099;23388;-58
2020/12/15 08:32:27;;;;;;;;;;;;;;;1.20;84.12;100292.84;126096;1098;25210;-57
2020/12/15 08:35:03;;;;;;;;;;;;;;;1.25;84.74;100297.86;126094;1098;21500;-58
2020/12/15 08:37:41;;;;;;;;;;;;;;;1.32;84.55;100303.27;126312;1098;21701;-60
2020/12/15 08:40:20;;;;;;;;;;;;;;;1.36;84.67;100301.24;126337;1098;21491;-58
2020/12/15 08:43:11;;;;;;;;;;;;;;;1.43;84.35;100310.16;126986;1098;22163;-58
2020/12/15 09:16:46;;;;;;;;;;;;;;;2.27;83.76;100294.23;126371;1098;21500;-60
2020/12/15 09:19:16;;;;;;;;;;;;;;;2.30;83.59;100276.84;127014;1099;21503;-59
2020/12/15 09:21:55;;;;;;;;;;;;;;;2.33;83.93;100289.00;126360;1098;24441;-59
2020/12/15 09:24:26;;;;;;;;;;;;;;;2.36;83.97;100277.91;126754;1098;21497;-58
2020/12/15 09:26:55;;;;;;;;;;;;;;;2.42;83.25;100272.70;126562;1098;23165;-59
2020/12/15 09:29:23;;;;;;;;;;;;;;;2.47;83.31;100272.19;128446;1098;21787;-59
2020/12/15 09:31:52;;;;;;;;;;;;;;;2.52;83.30;100279.19;126642;1099;25055;-62
2020/12/15 09:34:22;;;;;;;;;;;;;;;2.56;83.89;100271.63;127338;1099;21711;-59
2020/12/15 09:36:58;;;;;;;;;;;;;;;2.63;83.12;100275.02;127214;1098;23028;-58
2020/12/15 09:39:27;;;;;;;;;;;;;;;2.67;83.18;100286.74;126819;1098;21497;-61
2020/12/15 09:41:58;;;;;;;;;;;;;;;2.71;83.30;100276.42;126653;1098;21612;-59
2020/12/15 09:44:27;;;;;;;;;;;;;;;2.77;83.39;100279.48;126708;1098;21618;-59
2020/12/15 09:46:57;;;;;;;;;;;;;;;2.79;83.40;100277.07;126796;1099;25825;-58
2020/12/15 09:49:25;;;;;;;;;;;;;;;2.81;83.53;100271.91;126725;1098;21498;-58
2020/12/15 09:51:54;;;;;;;;;;;;;;;2.86;83.52;100279.66;126506;1098;21500;-58
2020/12/15 09:54:23;;;;;;;;;;;;;;;2.90;82.93;100281.15;126782;1098;25779;-63
2020/12/15 09:56:52;;;;;;;;;;;;;;;2.95;83.18;100282.64;126680;1099;21573;-61
2020/12/15 09:59:24;;;;;;;;;;;;;;;2.98;82.61;100277.03;126277;1098;24202;-62
2020/12/15 10:01:53;;;;;;;;;;;;;;;3.00;82.82;100271.87;126427;1098;21586;-63
2020/12/15 10:04:22;;;;;;;;;;;;;;;3.06;82.98;100275.67;126635;1098;21503;-62
2020/12/15 10:06:50;;;;;;;;;;;;;;;3.09;82.56;100277.59;127068;1098;24208;-59
2020/12/15 10:09:19;;;;;;;;;;;;;;;3.13;82.67;100283.02;126138;1098;21501;-62
2020/12/15 10:11:47;;;;;;;;;;;;;;;3.17;83.07;100283.72;127023;1099;21505;-64
2020/12/15 10:14:16;;;;;;;;;;;;;;;3.21;82.84;100287.17;126634;1100;21491;-62
2020/12/15 10:16:45;;;;;;;;;;;;;;;3.27;82.71;100289.00;126281;1098;21646;-62
2020/12/15 10:19:16;;;;;;;;;;;;;;;3.32;82.95;100278.66;127213;1099;23996;-60
2020/12/15 10:21:45;;;;;;;;;;;;;;;3.35;83.01;100275.84;126893;1093;21496;-62
2020/12/15 10:24:13;;;;;;;;;;;;;;;3.41;82.80;100279.64;126130;1099;23111;-62
2020/12/15 10:26:42;;;;;;;;;;;;;;;3.48;83.45;100276.70;126402;1098;24314;-63
2020/12/15 10:29:12;;;;;;;;;;;;;;;3.56;83.00;100277.33;126189;1099;21612;-62
2020/12/15 10:31:42;;;;;;;;;;;;;;;3.63;82.82;100261.36;128699;1099;21560;-60
2020/12/15 10:34:10;;;;;;;;;;;;;;;3.72;83.03;100255.23;126322;1098;24250;-61
2020/12/15 10:36:42;;;;;;;;;;;;;;;3.80;82.80;100264.89;127507;1099;21497;-62
2020/12/15 10:39:10;;;;;;;;;;;;;;;3.88;82.17;100258.77;126453;1098;21493;-62
2020/12/15 10:41:41;;;;;;;;;;;;;;;3.97;82.28;100260.92;126262;1098;21497;-60
2020/12/15 10:44:14;;;;;;;;;;;;;;;4.03;82.45;100262.70;127052;1098;21562;-62
2020/12/15 10:46:43;;;;;;;;;;;;;;;4.09;82.00;100274.02;126671;1098;21630;-60
2020/12/15 10:49:13;;;;;;;;;;;;;;;4.13;81.96;100274.70;126182;1098;21501;-62
2020/12/15 10:51:41;;;;;;;;;;;;;;;4.15;82.02;100266.75;128372;1098;21583;-63
2020/12/15 10:54:10;;;;;;;;;;;;;;;4.15;81.69;100266.75;126147;1098;21567;-61
2020/12/15 10:56:39;;;;;;;;;;;;;;;4.15;81.76;100263.98;126195;1098;22887;-62
2020/12/15 10:59:08;;;;;;;;;;;;;;;4.15;81.92;100263.98;126214;1099;22600;-64
2020/12/15 11:01:36;;;;;;;;;;;;;;;4.15;81.63;100263.98;126329;1098;21476;-62
2020/12/15 11:04:05;;;;;;;;;;;;;;;4.13;81.90;100258.12;126206;1099;21515;-61
2020/12/15 11:06:36;;;;;;;;;;;;;;;4.14;81.41;100267.19;126198;1098;21514;-60
2020/12/15 11:09:06;;;;;;;;;;;;;;;4.15;81.72;100263.20;126518;1099;21639;-61
2020/12/15 11:11:36;;;;;;;;;;;;;;;4.15;81.78;100263.98;126366;1098;21560;-61
2020/12/15 11:14:06;;;;;;;;;;;;;;;4.16;81.49;100267.53;126402;1098;21498;-62
2020/12/15 11:16:36;;;;;;;;;;;;;;;4.16;81.44;100259.24;126209;1098;21502;-62
2020/12/15 11:19:06;;;;;;;;;;;;;;;4.18;81.56;100259.58;126074;1098;21636;-62
2020/12/15 11:21:37;;;;;;;;;;;;;;;4.19;81.57;100247.30;126315;1098;26563;-62
2020/12/15 11:24:07;;;;;;;;;;;;;;;4.18;81.84;100254.81;126420;1099;21623;-61
2020/12/15 11:26:38;;;;;;;;;;;;;;;4.18;81.45;100259.58;126525;1098;21592;-62
2020/12/15 11:32:30;;;;;;;;;;;;;;;4.14;81.74;100264.43;126089;1101;22534;-63
2020/12/15 11:34:59;;;;;;;;;;;;;;;4.11;81.57;100257.78;126127;1100;21645;-61
2020/12/15 11:37:27;;;;;;;;;;;;;;;4.09;81.37;100252.70;126033;1100;21798;-59
2020/12/15 11:39:55;;;;;;;;;;;;;;;4.09;81.45;100258.22;126029;1100;21515;-63
2020/12/15 11:42:24;;;;;;;;;;;;;;;4.10;81.74;100248.70;126594;1100;21496;-62
2020/12/15 11:44:53;;;;;;;;;;;;;;;4.12;81.55;100245.50;126079;1100;21764;-62
2020/12/15 11:47:23;;;;;;;;;;;;;;;4.15;81.54;100238.34;129743;1100;21450;-62
2020/12/15 11:49:51;;;;;;;;;;;;;;;4.19;81.13;100231.52;125839;1093;21504;-62
2020/12/15 11:52:19;;;;;;;;;;;;;;;4.23;81.16;100247.98;126356;1100;24222;-61
2020/12/15 11:54:50;;;;;;;;;;;;;;;4.26;81.27;100234.09;126052;1100;21599;-62
2020/12/15 11:57:18;;;;;;;;;;;;;;;4.29;81.39;100235.19;127013;1101;21502;-61
2020/12/15 11:59:50;;;;;;;;;;;;;;;4.32;81.49;100226.81;125787;1100;21772;-59
2020/12/15 12:02:19;;;;;;;;;;;;;;;4.36;81.36;100243.30;127667;1093;24269;-63
2020/12/15 12:04:50;;;;;;;;;;;;;;;4.40;81.32;100233.70;126346;1098;21576;-60
2020/12/15 12:07:21;;;;;;;;;;;;;;;4.44;81.08;100233.59;126466;1099;21617;-62
2020/12/15 12:09:51;;;;;;;;;;;;;;;4.50;81.29;100232.63;126658;1093;21500;-61
2020/12/15 12:12:21;;;;;;;;;;;;;;;4.54;81.23;100227.77;126523;1098;24554;-62
2020/12/15 12:14:52;;;;;;;;;;;;;;;4.58;81.08;100233.18;126169;1099;24171;-61
2020/12/15 12:17:22;;;;;;;;;;;;;;;4.59;81.18;100232.73;126377;1098;21566;-62
2020/12/15 12:19:52;;;;;;;;;;;;;;;4.61;80.89;100221.26;126168;1098;21497;-62
2020/12/15 12:22:22;;;;;;;;;;;;;;;4.61;81.07;100213.75;126103;1098;21643;-62
2020/12/15 12:24:51;;;;;;;;;;;;;;;4.60;80.99;100222.46;126451;1098;21501;-63